createdAt,value
2019-06-26T00:04:44.453Z,7.60
2019-06-26T00:09:48.340Z,7.85
2019-06-26T00:14:52.234Z,7.28
2019-06-26T00:19:56.124Z,7.40
2019-06-26T00:25:00.032Z,8.58
2019-06-26T00:30:07.893Z,7.83
2019-06-26T00:35:11.774Z,8.25
2019-06-26T00:40:15.792Z,8.05
2019-06-26T00:45:19.723Z,7.95
2019-06-26T00:50:23.633Z,8.60
2019-06-26T00:55:27.511Z,8.33
2019-06-26T01:00:37.150Z,7.37
2019-06-26T01:05:41.023Z,7.90
2019-06-26T01:10:45.035Z,7.65
2019-06-26T01:15:48.923Z,7.95
2019-06-26T01:20:52.935Z,7.37
2019-06-26T01:25:56.816Z,7.33
2019-06-26T01:31:00.721Z,8.15
2019-06-26T01:36:04.583Z,7.35
2019-06-26T01:41:08.491Z,8.03
2019-06-26T01:46:12.353Z,7.42
2019-06-26T01:51:16.241Z,7.17
2019-06-26T01:56:20.114Z,6.65
2019-06-26T02:01:24.180Z,7.05
2019-06-26T02:06:28.284Z,7.28
2019-06-26T02:11:32.174Z,6.97
2019-06-26T02:16:36.263Z,6.92
2019-06-26T02:21:40.165Z,7.58
2019-06-26T02:26:44.043Z,7.00
2019-06-26T02:31:47.938Z,7.60
2019-06-26T02:36:51.828Z,7.05
2019-06-26T02:41:55.814Z,7.15
2019-06-26T02:47:17.496Z,6.80
2019-06-26T02:52:05.244Z,7.03
2019-06-26T02:57:09.124Z,7.67
2019-06-26T03:02:13.003Z,7.10
2019-06-26T03:07:16.890Z,6.83
2019-06-26T03:12:20.773Z,6.87
2019-06-26T03:17:24.663Z,7.45
2019-06-26T03:22:28.545Z,6.40
2019-06-26T03:27:32.433Z,7.00
2019-06-26T03:32:36.305Z,7.55
2019-06-26T03:37:40.238Z,7.40
2019-06-26T03:42:44.135Z,7.42
2019-06-26T03:47:48.054Z,6.92
2019-06-26T03:52:52.033Z,7.97
2019-06-26T03:57:56.073Z,7.22
2019-06-26T04:02:59.973Z,7.08
2019-06-26T04:08:04.053Z,7.05
2019-06-26T04:13:07.983Z,6.87
2019-06-26T04:18:11.884Z,8.03
2019-06-26T04:23:15.773Z,7.45
2019-06-26T04:28:19.665Z,7.70
2019-06-26T04:33:23.533Z,7.55
2019-06-26T04:38:27.651Z,7.42
2019-06-26T04:43:31.534Z,8.23
2019-06-26T04:48:35.417Z,8.35
2019-06-26T04:53:39.306Z,7.30
2019-06-26T04:58:43.281Z,7.42
2019-06-26T05:03:47.143Z,7.92
2019-06-26T05:08:51.034Z,7.70
2019-06-26T05:13:54.894Z,8.83
2019-06-26T05:18:58.795Z,8.23
2019-06-26T05:24:02.693Z,8.73
2019-06-26T05:29:06.593Z,9.55
2019-06-26T05:34:11.154Z,10.00
2019-06-26T05:39:15.253Z,10.20
2019-06-26T05:44:19.133Z,10.13
2019-06-26T05:49:23.033Z,10.53
2019-06-26T05:54:26.915Z,10.60
2019-06-26T05:59:30.881Z,11.38
2019-06-26T06:04:34.817Z,11.25
2019-06-26T06:09:38.699Z,12.37
2019-06-26T06:14:42.592Z,14.00
2019-06-26T06:19:46.471Z,13.85
2019-06-26T06:24:50.364Z,13.40
2019-06-26T06:29:54.224Z,15.13
2019-06-26T06:34:58.221Z,15.45
2019-06-26T06:40:02.113Z,16.55
2019-06-26T06:45:07.513Z,15.78
2019-06-26T06:50:11.523Z,17.50
2019-06-26T06:55:15.524Z,19.65
2019-06-26T07:00:19.702Z,18.00
2019-06-26T07:05:23.615Z,18.85
2019-06-26T07:10:27.464Z,18.42
2019-06-26T07:15:31.361Z,17.90
2019-06-26T07:20:35.288Z,19.45
2019-06-26T07:25:39.363Z,18.05
2019-06-26T07:30:43.283Z,19.00
2019-06-26T07:35:47.324Z,20.45
2019-06-26T07:40:51.265Z,19.48
2019-06-26T07:45:55.274Z,19.60
2019-06-26T07:50:59.303Z,20.17
2019-06-26T07:56:03.180Z,19.92
2019-06-26T08:01:07.162Z,20.55
2019-06-26T08:06:11.073Z,19.73
2019-06-26T08:11:14.963Z,19.15
2019-06-26T08:16:19.023Z,19.37
2019-06-26T08:21:22.923Z,19.52
2019-06-26T08:26:26.822Z,21.35
2019-06-26T08:31:30.703Z,20.12
2019-06-26T08:36:34.597Z,19.42
2019-06-26T08:41:38.487Z,20.25
2019-06-26T08:46:42.353Z,19.70
2019-06-26T08:51:46.375Z,20.08
2019-06-26T08:56:50.255Z,20.85
2019-06-26T09:01:54.222Z,19.77
2019-06-26T09:06:58.193Z,19.80
2019-06-26T09:12:02.105Z,19.90
2019-06-26T09:17:05.984Z,20.68
2019-06-26T09:22:10.037Z,19.27
2019-06-26T09:27:15.101Z,24.00
2019-06-26T09:32:19.324Z,20.80
2019-06-26T09:37:23.214Z,20.32
2019-06-26T09:42:27.131Z,20.57
2019-06-26T09:47:31.242Z,20.12
2019-06-26T09:52:35.244Z,20.60
2019-06-26T09:57:39.253Z,20.88
2019-06-26T10:02:43.257Z,20.90
2019-06-26T10:07:47.113Z,21.20
2019-06-26T10:12:50.983Z,20.85
2019-06-26T10:17:54.903Z,19.55
2019-06-26T10:22:58.869Z,21.52
2019-06-26T10:28:02.790Z,21.40
2019-06-26T10:33:06.733Z,20.80
2019-06-26T10:38:10.629Z,20.80
2019-06-26T10:43:14.533Z,20.48
2019-06-26T10:48:18.493Z,20.10
2019-06-26T10:53:22.384Z,19.48
2019-06-26T10:58:26.254Z,21.17
2019-06-26T11:03:30.126Z,21.23
2019-06-26T11:08:34.039Z,21.45
2019-06-26T11:13:37.924Z,20.48
2019-06-26T11:18:41.839Z,19.45
2019-06-26T11:23:45.722Z,20.45
2019-06-26T11:28:49.589Z,20.45
2019-06-26T11:33:53.510Z,19.82
2019-06-26T11:38:57.384Z,20.35
2019-06-26T11:44:01.297Z,18.52
2019-06-26T11:49:05.273Z,20.35
2019-06-26T11:54:09.354Z,19.92
2019-06-26T11:59:13.395Z,20.27
2019-06-26T12:04:17.295Z,19.07
2019-06-26T12:09:21.193Z,21.15
2019-06-26T12:14:25.092Z,19.05
2019-06-26T12:19:29.075Z,19.00
2019-06-26T12:24:32.964Z,19.60
2019-06-26T12:29:36.844Z,18.50
2019-06-26T12:34:44.030Z,18.90
2019-06-26T12:39:46.474Z,18.52
2019-06-26T12:44:50.384Z,19.12
2019-06-26T12:49:54.273Z,19.67
2019-06-26T12:54:58.201Z,18.82
2019-06-26T13:00:02.615Z,18.48
2019-06-26T13:05:07.562Z,18.45
2019-06-26T13:10:12.063Z,17.52
2019-06-26T13:15:17.153Z,16.80
2019-06-26T13:20:21.173Z,16.93
2019-06-26T13:25:25.144Z,18.45
2019-06-26T13:30:39.214Z,17.02
2019-06-26T13:35:43.093Z,17.90
2019-06-26T13:40:47.018Z,17.87
2019-06-26T13:45:50.942Z,19.07
2019-06-26T13:51:08.319Z,18.80
2019-06-26T13:56:00.344Z,19.73
2019-06-26T14:01:04.233Z,18.85
2019-06-26T14:06:08.193Z,19.42
2019-06-26T14:11:12.063Z,17.45
2019-06-26T14:16:16.005Z,18.50
2019-06-26T14:21:25.433Z,17.95
2019-06-26T14:26:25.474Z,17.10
2019-06-26T14:31:29.383Z,17.65
2019-06-26T14:36:33.277Z,18.07
2019-06-26T14:41:39.221Z,18.90
2019-06-26T14:46:42.713Z,18.92
2019-06-26T14:51:47.743Z,17.37
2019-06-26T14:56:52.003Z,16.97
2019-06-26T15:01:56.797Z,17.02
2019-06-26T15:07:00.681Z,15.80
2019-06-26T15:12:04.553Z,16.85
2019-06-26T15:17:08.454Z,15.18
2019-06-26T15:22:12.350Z,15.70
2019-06-26T15:27:16.223Z,14.35
2019-06-26T15:32:20.259Z,15.50
2019-06-26T15:37:24.414Z,14.13
2019-06-26T15:42:28.315Z,13.95
2019-06-26T15:47:32.252Z,13.88
2019-06-26T15:52:36.213Z,13.10
2019-06-26T15:57:40.083Z,12.70
2019-06-26T16:02:44.003Z,12.28
2019-06-26T16:07:47.934Z,13.05
2019-06-26T16:12:51.804Z,12.10
2019-06-26T16:17:57.273Z,12.95
2019-06-26T16:23:01.209Z,12.07
2019-06-26T16:28:06.185Z,12.20
2019-06-26T16:33:10.313Z,11.88
2019-06-26T16:38:14.193Z,11.63
2019-06-26T16:43:18.103Z,12.43
2019-06-26T16:48:21.995Z,11.35
2019-06-26T16:53:25.833Z,11.88
2019-06-26T16:58:29.754Z,11.43
2019-06-26T17:03:33.657Z,11.48
2019-06-26T17:08:37.544Z,11.38
2019-06-26T17:13:41.443Z,11.53
2019-06-26T17:18:45.333Z,11.30
2019-06-26T17:23:49.213Z,10.95
2019-06-26T17:28:53.093Z,11.85
2019-06-26T17:33:56.994Z,11.08
2019-06-26T17:39:00.900Z,11.08
2019-06-26T17:44:04.974Z,13.38
2019-06-26T17:49:08.854Z,12.30
2019-06-26T17:54:13.461Z,12.25
2019-06-26T17:59:17.354Z,15.00
2019-06-26T18:04:21.225Z,18.10
2019-06-26T18:09:25.145Z,15.55
2019-06-26T18:14:29.609Z,13.65
2019-06-26T18:19:33.533Z,13.90
2019-06-26T18:24:37.504Z,12.95
2019-06-26T18:29:41.424Z,12.60
2019-06-26T18:34:46.861Z,14.95
2019-06-26T18:39:51.003Z,15.32
2019-06-26T18:44:54.903Z,17.70
2019-06-26T18:49:58.784Z,15.85
2019-06-26T18:55:02.694Z,15.93
2019-06-26T19:00:07.977Z,22.70
2019-06-26T19:05:11.964Z,19.23
2019-06-26T19:10:16.363Z,17.90
2019-06-26T19:15:20.348Z,19.80
2019-06-26T19:20:24.343Z,19.50
2019-06-26T19:25:28.240Z,21.02
2019-06-26T19:30:32.105Z,17.40
2019-06-26T19:35:36.214Z,22.27
2019-06-26T19:40:40.514Z,23.57
2019-06-26T19:45:44.654Z,22.42
2019-06-26T19:50:48.691Z,19.27
2019-06-26T19:55:52.813Z,19.52
2019-06-26T20:00:56.845Z,18.35
2019-06-26T20:06:00.733Z,19.45
2019-06-26T20:11:04.659Z,17.90
2019-06-26T20:16:08.655Z,16.50
2019-06-26T20:21:12.563Z,19.80
2019-06-26T20:26:16.474Z,16.48
2019-06-26T20:31:20.433Z,14.83
2019-06-26T20:36:24.354Z,14.75
2019-06-26T20:41:28.424Z,14.75
2019-06-26T20:46:32.341Z,14.45
2019-06-26T20:51:36.363Z,14.25
2019-06-26T20:56:40.323Z,14.60
2019-06-26T21:01:44.254Z,14.60
2019-06-26T21:06:48.163Z,14.70
2019-06-26T21:11:52.063Z,14.33
2019-06-26T21:16:55.999Z,13.80
2019-06-26T21:22:00.114Z,14.38
2019-06-26T21:27:04.107Z,14.75
2019-06-26T21:32:08.077Z,14.60
2019-06-26T21:37:12.064Z,14.45
2019-06-26T21:42:15.973Z,14.05
2019-06-26T21:47:19.837Z,13.08
2019-06-26T21:52:23.793Z,14.33
2019-06-26T21:57:27.674Z,14.50
2019-06-26T22:02:31.563Z,14.40
2019-06-26T22:07:35.481Z,14.33
2019-06-26T22:12:39.453Z,14.50
2019-06-26T22:17:43.356Z,14.70
2019-06-26T22:22:47.274Z,14.47
2019-06-26T22:27:51.213Z,14.05
2019-06-26T22:32:55.145Z,14.50
2019-06-26T22:37:59.058Z,14.35
2019-06-26T22:43:03.044Z,14.13
2019-06-26T22:48:07.057Z,13.65
2019-06-26T22:53:10.952Z,14.18
2019-06-26T22:58:14.934Z,13.45
2019-06-26T23:03:18.838Z,14.00
2019-06-26T23:08:22.703Z,13.88
2019-06-26T23:13:26.644Z,14.28
2019-06-26T23:18:30.534Z,14.43
2019-06-26T23:23:34.385Z,14.95
2019-06-26T23:28:38.770Z,14.65
2019-06-26T23:33:42.664Z,15.00
2019-06-26T23:38:46.553Z,14.60
2019-06-26T23:43:50.464Z,15.28
2019-06-26T23:48:54.361Z,15.60
2019-06-26T23:53:58.237Z,15.60
2019-06-26T23:59:02.144Z,15.68
